createdAt,value
2023-01-29T00:00:19.000Z,183
2023-01-29T00:01:34.000Z,183
2023-01-29T00:02:51.000Z,179
2023-01-29T00:04:07.000Z,183
2023-01-29T00:05:23.000Z,181
2023-01-29T00:06:39.000Z,180
2023-01-29T00:07:56.000Z,185
2023-01-29T00:09:12.000Z,185
2023-01-29T00:10:28.000Z,186
2023-01-29T00:11:44.000Z,186
2023-01-29T00:13:01.000Z,183
2023-01-29T00:14:17.000Z,179
2023-01-29T00:15:33.000Z,182
2023-01-29T00:16:49.000Z,187
2023-01-29T00:18:04.000Z,186
2023-01-29T00:19:21.000Z,183
2023-01-29T00:20:37.000Z,180
2023-01-29T00:21:53.000Z,182
2023-01-29T00:23:09.000Z,181
2023-01-29T00:24:26.000Z,179
2023-01-29T00:25:42.000Z,183
2023-01-29T00:26:58.000Z,185
2023-01-29T00:28:14.000Z,185
2023-01-29T00:29:31.000Z,176
2023-01-29T00:30:47.000Z,179
2023-01-29T00:32:03.000Z,182
2023-01-29T00:33:19.000Z,184
2023-01-29T00:34:35.000Z,184
2023-01-29T00:35:51.000Z,185
2023-01-29T00:37:06.000Z,185
2023-01-29T00:38:21.000Z,185
2023-01-29T00:39:38.000Z,183
2023-01-29T00:40:54.000Z,179
2023-01-29T00:42:09.000Z,183
2023-01-29T00:43:24.000Z,181
2023-01-29T00:44:41.000Z,185
2023-01-29T00:45:57.000Z,186
2023-01-29T00:47:13.000Z,184
2023-01-29T00:48:29.000Z,182
2023-01-29T00:49:45.000Z,185
2023-01-29T00:51:02.000Z,186
2023-01-29T00:52:18.000Z,185
2023-01-29T00:53:34.000Z,186
2023-01-29T00:54:50.000Z,184
2023-01-29T00:56:07.000Z,181
2023-01-29T00:57:23.000Z,184
2023-01-29T00:59:55.000Z,182
2023-01-29T01:01:11.000Z,185
2023-01-29T01:02:27.000Z,186
2023-01-29T01:03:43.000Z,186
2023-01-29T01:04:59.000Z,183
2023-01-29T01:06:16.000Z,188
2023-01-29T01:07:32.000Z,185
2023-01-29T01:08:48.000Z,180
2023-01-29T01:10:03.000Z,182
2023-01-29T01:11:19.000Z,184
2023-01-29T01:12:34.000Z,180
2023-01-29T01:13:49.000Z,188
2023-01-29T01:15:05.000Z,185
2023-01-29T01:16:21.000Z,179
2023-01-29T01:17:38.000Z,187
2023-01-29T01:18:54.000Z,184
2023-01-29T01:20:10.000Z,180
2023-01-29T01:21:26.000Z,185
2023-01-29T01:22:43.000Z,186
2023-01-29T01:23:59.000Z,185
2023-01-29T01:25:15.000Z,185
2023-01-29T01:26:31.000Z,186
2023-01-29T01:27:48.000Z,186
2023-01-29T01:29:04.000Z,182
2023-01-29T01:30:19.000Z,186
2023-01-29T01:31:35.000Z,182
2023-01-29T01:32:52.000Z,186
2023-01-29T01:34:08.000Z,184
2023-01-29T01:35:24.000Z,186
2023-01-29T01:36:40.000Z,186
2023-01-29T01:37:56.000Z,187
2023-01-29T01:39:11.000Z,186
2023-01-29T01:40:26.000Z,185
2023-01-29T01:41:41.000Z,180
2023-01-29T01:42:57.000Z,185
2023-01-29T01:44:13.000Z,185
2023-01-29T01:45:29.000Z,187
2023-01-29T01:46:45.000Z,183
2023-01-29T01:48:01.000Z,180
2023-01-29T01:49:18.000Z,180
2023-01-29T01:50:34.000Z,186
2023-01-29T01:51:50.000Z,185
2023-01-29T01:53:06.000Z,179
2023-01-29T01:54:23.000Z,179
2023-01-29T01:55:39.000Z,180
2023-01-29T01:56:55.000Z,188
2023-01-29T01:58:11.000Z,185
2023-01-29T01:59:27.000Z,185
2023-01-29T02:00:43.000Z,187
2023-01-29T02:01:59.000Z,187
2023-01-29T02:03:15.000Z,185
2023-01-29T02:05:48.000Z,185
2023-01-29T02:07:04.000Z,182
2023-01-29T02:08:20.000Z,186
2023-01-29T02:09:36.000Z,187
2023-01-29T02:10:53.000Z,183
2023-01-29T02:12:09.000Z,181
2023-01-29T02:13:25.000Z,184
2023-01-29T02:14:41.000Z,181
2023-01-29T02:15:57.000Z,185
2023-01-29T02:17:13.000Z,187
2023-01-29T02:18:29.000Z,185
2023-01-29T02:19:45.000Z,186
2023-01-29T02:21:02.000Z,185
2023-01-29T02:22:18.000Z,187
2023-01-29T02:23:34.000Z,185
2023-01-29T02:24:50.000Z,186
2023-01-29T02:26:07.000Z,179
2023-01-29T02:27:23.000Z,187
2023-01-29T02:28:39.000Z,185
2023-01-29T02:29:55.000Z,183
2023-01-29T02:31:11.000Z,185
2023-01-29T02:32:27.000Z,179
2023-01-29T02:33:43.000Z,180
2023-01-29T02:34:59.000Z,187
2023-01-29T02:36:15.000Z,183
2023-01-29T02:37:32.000Z,179
2023-01-29T02:38:48.000Z,179
2023-01-29T02:40:04.000Z,178
2023-01-29T02:41:20.000Z,178
2023-01-29T02:42:37.000Z,178
2023-01-29T02:43:52.000Z,180
2023-01-29T02:45:07.000Z,186
2023-01-29T02:46:23.000Z,185
2023-01-29T02:47:40.000Z,179
2023-01-29T02:48:56.000Z,180
2023-01-29T02:50:12.000Z,185
2023-01-29T02:51:27.000Z,181
2023-01-29T02:52:44.000Z,183
2023-01-29T02:53:59.000Z,183
2023-01-29T02:55:15.000Z,186
2023-01-29T02:56:31.000Z,185
2023-01-29T02:57:48.000Z,179
2023-01-29T02:59:04.000Z,183
2023-01-29T03:00:20.000Z,187
2023-01-29T03:01:36.000Z,183
2023-01-29T03:02:52.000Z,177
2023-01-29T03:04:09.000Z,180
2023-01-29T03:05:25.000Z,186
2023-01-29T03:06:41.000Z,185
2023-01-29T03:07:57.000Z,186
2023-01-29T03:09:14.000Z,184
2023-01-29T03:10:29.000Z,179
2023-01-29T03:11:45.000Z,178
2023-01-29T03:13:01.000Z,181
2023-01-29T03:14:18.000Z,185
2023-01-29T03:15:34.000Z,185
2023-01-29T03:16:50.000Z,187
2023-01-29T03:18:06.000Z,184
2023-01-29T03:19:23.000Z,180
2023-01-29T03:20:39.000Z,185
2023-01-29T03:21:55.000Z,184
2023-01-29T03:23:11.000Z,183
2023-01-29T03:24:27.000Z,187
2023-01-29T03:25:44.000Z,183
2023-01-29T03:26:59.000Z,183
2023-01-29T03:28:15.000Z,180
2023-01-29T03:29:31.000Z,183
2023-01-29T03:30:48.000Z,177
2023-01-29T03:32:04.000Z,181
2023-01-29T03:33:20.000Z,187
2023-01-29T03:34:36.000Z,185
2023-01-29T03:35:52.000Z,184
2023-01-29T03:37:07.000Z,180
2023-01-29T03:38:23.000Z,181
2023-01-29T03:39:38.000Z,187
2023-01-29T03:40:54.000Z,184
2023-01-29T03:42:10.000Z,185
2023-01-29T03:43:26.000Z,185
2023-01-29T03:44:42.000Z,179
2023-01-29T03:45:59.000Z,180
2023-01-29T03:47:15.000Z,178
2023-01-29T03:48:31.000Z,181
2023-01-29T03:49:47.000Z,186
2023-01-29T03:51:04.000Z,186
2023-01-29T03:52:20.000Z,186
2023-01-29T03:53:36.000Z,185
2023-01-29T03:54:52.000Z,180
2023-01-29T03:56:08.000Z,187
2023-01-29T03:57:24.000Z,186
2023-01-29T03:58:40.000Z,187
2023-01-29T03:59:56.000Z,188
2023-01-29T04:01:12.000Z,183
2023-01-29T04:02:29.000Z,180
2023-01-29T04:03:45.000Z,187
2023-01-29T04:05:01.000Z,187
2023-01-29T04:06:17.000Z,187
2023-01-29T04:07:34.000Z,185
2023-01-29T04:08:50.000Z,183
2023-01-29T04:10:06.000Z,185
2023-01-29T04:11:22.000Z,180
2023-01-29T04:12:39.000Z,186
2023-01-29T04:13:54.000Z,187
2023-01-29T04:15:10.000Z,185
2023-01-29T04:16:26.000Z,187
2023-01-29T04:17:42.000Z,180
2023-01-29T04:18:59.000Z,181
2023-01-29T04:21:31.000Z,181
2023-01-29T04:22:47.000Z,185
2023-01-29T04:24:04.000Z,187
2023-01-29T04:25:20.000Z,185
2023-01-29T04:26:35.000Z,185
2023-01-29T04:27:50.000Z,180
2023-01-29T04:29:07.000Z,186
2023-01-29T04:30:22.000Z,185
2023-01-29T04:31:37.000Z,184
2023-01-29T04:32:53.000Z,185
2023-01-29T04:34:10.000Z,180
2023-01-29T04:35:26.000Z,183
2023-01-29T04:36:42.000Z,180
2023-01-29T04:37:58.000Z,182
2023-01-29T04:39:15.000Z,186
2023-01-29T04:40:31.000Z,182
2023-01-29T04:41:47.000Z,185
2023-01-29T04:43:03.000Z,181
2023-01-29T04:44:19.000Z,185
2023-01-29T04:45:36.000Z,181
2023-01-29T04:46:52.000Z,185
2023-01-29T04:48:07.000Z,186
2023-01-29T04:49:23.000Z,181
2023-01-29T04:50:40.000Z,186
2023-01-29T04:51:56.000Z,185
2023-01-29T04:53:12.000Z,180
2023-01-29T04:54:28.000Z,186
2023-01-29T04:55:45.000Z,185
2023-01-29T04:57:00.000Z,182
2023-01-29T04:58:15.000Z,185
2023-01-29T04:59:31.000Z,188
2023-01-29T05:00:47.000Z,186
2023-01-29T05:02:02.000Z,187
2023-01-29T05:03:18.000Z,181
2023-01-29T05:04:34.000Z,187
2023-01-29T05:05:51.000Z,187
2023-01-29T05:07:07.000Z,187
2023-01-29T05:08:23.000Z,186
2023-01-29T05:09:39.000Z,188
2023-01-29T05:10:56.000Z,187
2023-01-29T05:12:12.000Z,186
2023-01-29T05:14:44.000Z,181
2023-01-29T05:16:00.000Z,182
2023-01-29T05:17:17.000Z,185
2023-01-29T05:18:32.000Z,186
2023-01-29T05:19:48.000Z,184
2023-01-29T05:21:04.000Z,182
2023-01-29T05:22:21.000Z,186
2023-01-29T05:23:37.000Z,188
2023-01-29T05:24:53.000Z,182
2023-01-29T05:26:09.000Z,188
2023-01-29T05:27:26.000Z,186
2023-01-29T05:28:41.000Z,185
2023-01-29T05:29:56.000Z,189
2023-01-29T05:31:11.000Z,185
2023-01-29T05:32:27.000Z,185
2023-01-29T05:33:43.000Z,182
2023-01-29T05:34:59.000Z,186
2023-01-29T05:36:15.000Z,188
2023-01-29T05:37:32.000Z,185
2023-01-29T05:38:48.000Z,181
2023-01-29T05:40:04.000Z,185
2023-01-29T05:41:20.000Z,180
2023-01-29T05:42:36.000Z,186
2023-01-29T05:43:53.000Z,184
2023-01-29T05:45:09.000Z,186
2023-01-29T05:47:41.000Z,179
2023-01-29T05:48:57.000Z,182
2023-01-29T05:50:13.000Z,187
2023-01-29T05:51:29.000Z,184
2023-01-29T05:52:44.000Z,183
2023-01-29T05:54:01.000Z,185
2023-01-29T05:56:33.000Z,186
2023-01-29T05:57:48.000Z,186
2023-01-29T05:59:04.000Z,187
2023-01-29T06:00:20.000Z,187
2023-01-29T06:01:36.000Z,183
2023-01-29T06:02:52.000Z,182
2023-01-29T06:04:09.000Z,188
2023-01-29T06:05:25.000Z,187
2023-01-29T06:06:41.000Z,185
2023-01-29T06:07:57.000Z,186
2023-01-29T06:09:14.000Z,186
2023-01-29T06:10:30.000Z,180
2023-01-29T06:11:45.000Z,183
2023-01-29T06:13:00.000Z,186
2023-01-29T06:14:16.000Z,185
2023-01-29T06:15:33.000Z,186
2023-01-29T06:16:49.000Z,181
2023-01-29T06:18:05.000Z,181
2023-01-29T06:19:21.000Z,186
2023-01-29T06:20:38.000Z,184
2023-01-29T06:21:54.000Z,187
2023-01-29T06:23:10.000Z,180
2023-01-29T06:24:26.000Z,182
2023-01-29T06:25:43.000Z,186
2023-01-29T06:26:59.000Z,189
2023-01-29T06:28:15.000Z,185
2023-01-29T06:29:30.000Z,183
2023-01-29T06:30:47.000Z,186
2023-01-29T06:32:03.000Z,182
2023-01-29T06:33:19.000Z,187
2023-01-29T06:34:35.000Z,185
2023-01-29T06:35:51.000Z,187
2023-01-29T06:37:08.000Z,187
2023-01-29T06:38:23.000Z,182
2023-01-29T06:39:38.000Z,188
2023-01-29T06:40:54.000Z,188
2023-01-29T06:42:10.000Z,189
2023-01-29T06:43:25.000Z,187
2023-01-29T06:44:41.000Z,183
2023-01-29T06:45:57.000Z,188
2023-01-29T06:47:14.000Z,189
2023-01-29T06:48:30.000Z,190
2023-01-29T06:49:46.000Z,188
2023-01-29T06:51:02.000Z,194
2023-01-29T06:52:19.000Z,193
2023-01-29T06:53:35.000Z,200
2023-01-29T06:54:51.000Z,210
2023-01-29T06:56:07.000Z,223
2023-01-29T06:57:24.000Z,232
2023-01-29T06:58:40.000Z,192
2023-01-29T06:59:55.000Z,12
2023-01-29T07:01:11.000Z,15
2023-01-29T07:02:28.000Z,25
2023-01-29T07:03:44.000Z,26
2023-01-29T07:05:00.000Z,32
2023-01-29T07:06:16.000Z,43
2023-01-29T07:07:32.000Z,47
2023-01-29T07:08:49.000Z,54
2023-01-29T07:10:05.000Z,66
2023-01-29T07:11:21.000Z,73
2023-01-29T07:12:37.000Z,78
2023-01-29T07:13:54.000Z,84
2023-01-29T07:15:10.000Z,100
2023-01-29T07:16:25.000Z,108
2023-01-29T07:17:41.000Z,122
2023-01-29T07:18:58.000Z,123
2023-01-29T07:20:14.000Z,135
2023-01-29T07:21:30.000Z,148
2023-01-29T07:22:46.000Z,171
2023-01-29T07:24:03.000Z,194
2023-01-29T07:25:19.000Z,223
2023-01-29T07:26:35.000Z,226
2023-01-29T07:27:51.000Z,240
2023-01-29T07:29:07.000Z,257
2023-01-29T07:31:40.000Z,288
2023-01-29T07:32:55.000Z,298
2023-01-29T07:34:10.000Z,315
2023-01-29T07:35:27.000Z,315
2023-01-29T07:36:42.000Z,325
2023-01-29T07:37:57.000Z,339
2023-01-29T07:39:13.000Z,365
2023-01-29T07:40:30.000Z,382
2023-01-29T07:41:46.000Z,383
2023-01-29T07:43:02.000Z,407
2023-01-29T07:44:18.000Z,438
2023-01-29T07:45:35.000Z,463
2023-01-29T07:46:51.000Z,491
2023-01-29T07:48:07.000Z,523
2023-01-29T07:49:23.000Z,547
2023-01-29T07:50:40.000Z,573
2023-01-29T07:51:56.000Z,624
2023-01-29T07:53:12.000Z,669
2023-01-29T07:54:27.000Z,687
2023-01-29T07:57:00.000Z,658
2023-01-29T07:58:16.000Z,641
2023-01-29T07:59:32.000Z,622
2023-01-29T08:00:48.000Z,603
2023-01-29T08:02:05.000Z,577
2023-01-29T08:03:21.000Z,554
2023-01-29T08:04:37.000Z,555
2023-01-29T08:05:53.000Z,574
2023-01-29T08:07:10.000Z,580
2023-01-29T08:08:26.000Z,575
2023-01-29T08:09:42.000Z,575
2023-01-29T08:10:57.000Z,579
2023-01-29T08:12:14.000Z,569
2023-01-29T08:13:30.000Z,557
2023-01-29T08:14:46.000Z,540
2023-01-29T08:16:02.000Z,494
2023-01-29T08:17:18.000Z,420
2023-01-29T08:18:35.000Z,382
2023-01-29T08:19:51.000Z,369
2023-01-29T08:21:07.000Z,370
2023-01-29T08:22:23.000Z,380
2023-01-29T08:23:40.000Z,394
2023-01-29T08:24:56.000Z,418
2023-01-29T08:26:12.000Z,454
2023-01-29T08:27:27.000Z,502
2023-01-29T08:28:44.000Z,567
2023-01-29T08:30:00.000Z,603
2023-01-29T08:31:16.000Z,642
2023-01-29T08:32:32.000Z,739
2023-01-29T08:33:49.000Z,788
2023-01-29T08:35:05.000Z,1011
2023-01-29T08:36:21.000Z,1034
2023-01-29T08:37:37.000Z,1158
2023-01-29T08:38:53.000Z,1261
2023-01-29T08:40:10.000Z,1330
2023-01-29T08:41:26.000Z,1382
2023-01-29T08:42:42.000Z,1469
2023-01-29T08:43:57.000Z,1403
2023-01-29T08:45:14.000Z,1211
2023-01-29T08:46:30.000Z,954
2023-01-29T08:47:46.000Z,1153
2023-01-29T08:49:02.000Z,1740
2023-01-29T08:50:19.000Z,1844
2023-01-29T08:51:35.000Z,1779
2023-01-29T08:52:50.000Z,1784
2023-01-29T08:54:05.000Z,2157
2023-01-29T08:55:22.000Z,2208
2023-01-29T08:56:37.000Z,2370
2023-01-29T08:57:52.000Z,2149
2023-01-29T08:59:08.000Z,1806
2023-01-29T09:00:25.000Z,1898
2023-01-29T09:01:41.000Z,2064
2023-01-29T09:02:57.000Z,2137
2023-01-29T09:04:13.000Z,2268
2023-01-29T09:05:30.000Z,2338
2023-01-29T09:06:46.000Z,2484
2023-01-29T09:08:02.000Z,2843
2023-01-29T09:09:18.000Z,3272
2023-01-29T09:10:34.000Z,2760
2023-01-29T09:11:51.000Z,2443
2023-01-29T09:13:07.000Z,2175
2023-01-29T09:14:22.000Z,1936
2023-01-29T09:15:38.000Z,1882
2023-01-29T09:16:55.000Z,1962
2023-01-29T09:18:11.000Z,2282
2023-01-29T09:19:27.000Z,2315
2023-01-29T09:20:43.000Z,2388
2023-01-29T09:22:00.000Z,2459
2023-01-29T09:23:15.000Z,2420
2023-01-29T09:24:30.000Z,2243
2023-01-29T09:25:46.000Z,2270
2023-01-29T09:27:02.000Z,2186
2023-01-29T09:28:17.000Z,1918
2023-01-29T09:29:33.000Z,2231
2023-01-29T09:30:49.000Z,2292
2023-01-29T09:32:06.000Z,2166
2023-01-29T09:33:22.000Z,2003
2023-01-29T09:34:38.000Z,2175
2023-01-29T09:35:54.000Z,2316
2023-01-29T09:37:10.000Z,2205
2023-01-29T09:38:27.000Z,2421
2023-01-29T09:39:43.000Z,2517
2023-01-29T09:40:59.000Z,2357
2023-01-29T09:42:15.000Z,2285
2023-01-29T09:43:32.000Z,2345
2023-01-29T09:44:47.000Z,2431
2023-01-29T09:46:03.000Z,2558
2023-01-29T09:47:19.000Z,2601
2023-01-29T09:48:36.000Z,2487
2023-01-29T09:49:52.000Z,2556
2023-01-29T09:51:08.000Z,2563
2023-01-29T09:52:24.000Z,2434
2023-01-29T09:53:41.000Z,2439
2023-01-29T09:54:57.000Z,2452
2023-01-29T09:56:13.000Z,2633
2023-01-29T09:57:29.000Z,2550
2023-01-29T09:58:45.000Z,2251
2023-01-29T10:00:02.000Z,2200
2023-01-29T10:01:17.000Z,2240
2023-01-29T10:02:33.000Z,2102
2023-01-29T10:03:49.000Z,2253
2023-01-29T10:05:05.000Z,2595
2023-01-29T10:06:20.000Z,3050
2023-01-29T10:07:35.000Z,3384
2023-01-29T10:08:50.000Z,3555
2023-01-29T10:10:06.000Z,3049
2023-01-29T10:11:22.000Z,2727
2023-01-29T10:12:38.000Z,3026
2023-01-29T10:15:11.000Z,2861
2023-01-29T10:16:27.000Z,3387
2023-01-29T10:17:43.000Z,2868
2023-01-29T10:18:59.000Z,1716
2023-01-29T10:20:16.000Z,2784
2023-01-29T10:21:32.000Z,3355
2023-01-29T10:22:48.000Z,3335
2023-01-29T10:24:04.000Z,3483
2023-01-29T10:25:21.000Z,3945
2023-01-29T10:26:36.000Z,4133
2023-01-29T10:27:52.000Z,3802
2023-01-29T10:29:08.000Z,3879
2023-01-29T10:30:25.000Z,3769
2023-01-29T10:31:41.000Z,3579
2023-01-29T10:32:57.000Z,3819
2023-01-29T10:34:13.000Z,3627
2023-01-29T10:35:29.000Z,3542
2023-01-29T10:36:46.000Z,3160
2023-01-29T10:38:02.000Z,3505
2023-01-29T10:39:18.000Z,3498
2023-01-29T10:40:34.000Z,3088
2023-01-29T10:41:51.000Z,3058
2023-01-29T10:43:06.000Z,3037
2023-01-29T10:44:22.000Z,2230
2023-01-29T10:45:38.000Z,1635
2023-01-29T10:46:55.000Z,1526
2023-01-29T10:48:11.000Z,1577
2023-01-29T10:49:27.000Z,1974
2023-01-29T10:50:43.000Z,2223
2023-01-29T10:52:00.000Z,2114
2023-01-29T10:53:16.000Z,2035
2023-01-29T10:54:32.000Z,2393
2023-01-29T10:55:48.000Z,2627
2023-01-29T10:57:04.000Z,2830
2023-01-29T10:58:21.000Z,2735
2023-01-29T10:59:36.000Z,2532
2023-01-29T11:00:52.000Z,2679
2023-01-29T11:02:08.000Z,2976
2023-01-29T11:03:25.000Z,3167
2023-01-29T11:04:41.000Z,3320
2023-01-29T11:05:57.000Z,3439
2023-01-29T11:07:13.000Z,3473
2023-01-29T11:08:30.000Z,3400
2023-01-29T11:09:46.000Z,3364
2023-01-29T11:11:02.000Z,3121
2023-01-29T11:12:18.000Z,3290
2023-01-29T11:13:35.000Z,3721
2023-01-29T11:14:51.000Z,3806
2023-01-29T11:16:06.000Z,4169
2023-01-29T11:17:22.000Z,4539
2023-01-29T11:18:38.000Z,4545
2023-01-29T11:19:55.000Z,4396
2023-01-29T11:21:11.000Z,3894
2023-01-29T11:22:27.000Z,4039
2023-01-29T11:23:43.000Z,4276
2023-01-29T11:25:00.000Z,4183
2023-01-29T11:26:16.000Z,4538
2023-01-29T11:27:32.000Z,4381
2023-01-29T11:28:48.000Z,4017
2023-01-29T11:30:05.000Z,3882
2023-01-29T11:31:21.000Z,4029
2023-01-29T11:32:36.000Z,3946
2023-01-29T11:33:52.000Z,3797
2023-01-29T11:35:08.000Z,3737
2023-01-29T11:36:23.000Z,3615
2023-01-29T11:37:38.000Z,3736
2023-01-29T11:38:53.000Z,4059
2023-01-29T11:40:10.000Z,4147
2023-01-29T11:41:26.000Z,3814
2023-01-29T11:42:42.000Z,3508
2023-01-29T11:43:58.000Z,4321
2023-01-29T11:45:14.000Z,4345
2023-01-29T11:46:31.000Z,4199
2023-01-29T11:47:47.000Z,4322
2023-01-29T11:49:03.000Z,4290
2023-01-29T11:50:19.000Z,4220
2023-01-29T11:51:36.000Z,4109
2023-01-29T11:52:52.000Z,3626
2023-01-29T11:54:08.000Z,4076
2023-01-29T11:55:24.000Z,3914
2023-01-29T11:56:40.000Z,4251
2023-01-29T11:57:56.000Z,4407
2023-01-29T11:59:12.000Z,4204
2023-01-29T12:00:28.000Z,4122
2023-01-29T12:01:45.000Z,4818
2023-01-29T12:03:01.000Z,4500
2023-01-29T12:04:17.000Z,4576
2023-01-29T12:05:33.000Z,4619
2023-01-29T12:06:49.000Z,4583
2023-01-29T12:08:06.000Z,4924
2023-01-29T12:09:22.000Z,5545
2023-01-29T12:10:38.000Z,4822
2023-01-29T12:11:54.000Z,4722
2023-01-29T12:13:10.000Z,4795
2023-01-29T12:14:26.000Z,4586
2023-01-29T12:15:42.000Z,4985
2023-01-29T12:16:58.000Z,4516
2023-01-29T12:18:15.000Z,5002
2023-01-29T12:19:31.000Z,4651
2023-01-29T12:20:47.000Z,5214
2023-01-29T12:22:03.000Z,5098
2023-01-29T12:23:20.000Z,4506
2023-01-29T12:24:36.000Z,4616
2023-01-29T12:25:52.000Z,4718
2023-01-29T12:27:08.000Z,5030
2023-01-29T12:28:24.000Z,5076
2023-01-29T12:29:40.000Z,4862
2023-01-29T12:30:56.000Z,4704
2023-01-29T12:32:12.000Z,4600
2023-01-29T12:33:28.000Z,4813
2023-01-29T12:34:45.000Z,4694
2023-01-29T12:36:01.000Z,4340
2023-01-29T12:38:33.000Z,4771
2023-01-29T12:39:50.000Z,4815
2023-01-29T12:41:06.000Z,4397
2023-01-29T12:42:22.000Z,4976
2023-01-29T12:43:38.000Z,4267
2023-01-29T12:44:55.000Z,4240
2023-01-29T12:46:10.000Z,4858
2023-01-29T12:47:26.000Z,4356
2023-01-29T12:48:42.000Z,4589
2023-01-29T12:49:58.000Z,4595
2023-01-29T12:51:15.000Z,4238
2023-01-29T12:52:31.000Z,4575
2023-01-29T12:53:47.000Z,4494
2023-01-29T12:55:03.000Z,4586
2023-01-29T12:56:20.000Z,4464
2023-01-29T12:57:36.000Z,4022
2023-01-29T12:58:52.000Z,3737
2023-01-29T13:00:08.000Z,3495
2023-01-29T13:01:25.000Z,3570
2023-01-29T13:02:40.000Z,3719
2023-01-29T13:03:56.000Z,3498
2023-01-29T13:05:12.000Z,3391
2023-01-29T13:06:29.000Z,3342
2023-01-29T13:07:45.000Z,3798
2023-01-29T13:09:01.000Z,3483
2023-01-29T13:10:17.000Z,3500
2023-01-29T13:11:33.000Z,3195
2023-01-29T13:12:50.000Z,3323
2023-01-29T13:14:06.000Z,3556
2023-01-29T13:15:22.000Z,3366
2023-01-29T13:17:54.000Z,3617
2023-01-29T13:19:09.000Z,3492
2023-01-29T13:20:24.000Z,3439
2023-01-29T13:21:40.000Z,3413
2023-01-29T13:22:56.000Z,3167
2023-01-29T13:24:11.000Z,3318
2023-01-29T13:25:27.000Z,2879
2023-01-29T13:26:43.000Z,2936
2023-01-29T13:28:00.000Z,2988
2023-01-29T13:29:16.000Z,2587
2023-01-29T13:30:32.000Z,2612
2023-01-29T13:31:48.000Z,2236
2023-01-29T13:33:05.000Z,2268
2023-01-29T13:34:21.000Z,2554
2023-01-29T13:35:37.000Z,2356
2023-01-29T13:36:53.000Z,2593
2023-01-29T13:38:10.000Z,2105
2023-01-29T13:39:26.000Z,2126
2023-01-29T13:40:42.000Z,2521
2023-01-29T13:41:57.000Z,2164
2023-01-29T13:43:13.000Z,1948
2023-01-29T13:44:30.000Z,2055
2023-01-29T13:45:46.000Z,2283
2023-01-29T13:47:02.000Z,2000
2023-01-29T13:48:18.000Z,2179
2023-01-29T13:49:35.000Z,2068
2023-01-29T13:50:51.000Z,2393
2023-01-29T13:52:07.000Z,2150
2023-01-29T13:53:23.000Z,2148
2023-01-29T13:54:40.000Z,1959
2023-01-29T13:55:56.000Z,1931
2023-01-29T13:57:11.000Z,2298
2023-01-29T13:58:26.000Z,2002
2023-01-29T13:59:43.000Z,1980
2023-01-29T14:02:14.000Z,1984
2023-01-29T14:03:29.000Z,1928
2023-01-29T14:04:46.000Z,1915
2023-01-29T14:06:01.000Z,1904
2023-01-29T14:07:17.000Z,1858
2023-01-29T14:08:33.000Z,2036
2023-01-29T14:09:50.000Z,2136
2023-01-29T14:11:06.000Z,1661
2023-01-29T14:12:22.000Z,1805
2023-01-29T14:13:38.000Z,1807
2023-01-29T14:14:54.000Z,1464
2023-01-29T14:16:11.000Z,1629
2023-01-29T14:17:27.000Z,1667
2023-01-29T14:18:43.000Z,1700
2023-01-29T14:19:59.000Z,1556
2023-01-29T14:21:16.000Z,1474
2023-01-29T14:22:31.000Z,1514
2023-01-29T14:23:47.000Z,1389
2023-01-29T14:25:03.000Z,1643
2023-01-29T14:26:20.000Z,1389
2023-01-29T14:27:36.000Z,1609
2023-01-29T14:28:52.000Z,1402
2023-01-29T14:30:08.000Z,1685
2023-01-29T14:31:25.000Z,1576
2023-01-29T14:32:41.000Z,1555
2023-01-29T14:33:57.000Z,1684
2023-01-29T14:35:13.000Z,1458
2023-01-29T14:36:29.000Z,1515
2023-01-29T14:37:46.000Z,1489
2023-01-29T14:39:01.000Z,1186
2023-01-29T14:40:17.000Z,1659
2023-01-29T14:41:33.000Z,1186
2023-01-29T14:42:50.000Z,1326
2023-01-29T14:44:06.000Z,1535
2023-01-29T14:45:22.000Z,1122
2023-01-29T14:46:38.000Z,1443
2023-01-29T14:47:55.000Z,1377
2023-01-29T14:49:11.000Z,1167
2023-01-29T14:50:27.000Z,1144
2023-01-29T14:51:43.000Z,1087
2023-01-29T14:53:00.000Z,1363
2023-01-29T14:54:16.000Z,1294
2023-01-29T14:55:31.000Z,954
2023-01-29T14:56:47.000Z,1052
2023-01-29T14:58:03.000Z,1196
2023-01-29T14:59:20.000Z,1241
2023-01-29T15:00:36.000Z,928
2023-01-29T15:01:52.000Z,1114
2023-01-29T15:03:08.000Z,918
2023-01-29T15:04:25.000Z,883
2023-01-29T15:05:41.000Z,824
2023-01-29T15:06:57.000Z,762
2023-01-29T15:08:13.000Z,642
2023-01-29T15:09:30.000Z,667
2023-01-29T15:10:46.000Z,608
2023-01-29T15:12:01.000Z,560
2023-01-29T15:13:17.000Z,521
2023-01-29T15:14:34.000Z,490
2023-01-29T15:15:50.000Z,452
2023-01-29T15:17:06.000Z,451
2023-01-29T15:18:22.000Z,427
2023-01-29T15:19:38.000Z,430
2023-01-29T15:20:55.000Z,432
2023-01-29T15:22:11.000Z,415
2023-01-29T15:23:26.000Z,455
2023-01-29T15:24:41.000Z,450
2023-01-29T15:25:57.000Z,448
2023-01-29T15:27:12.000Z,359
2023-01-29T15:28:28.000Z,441
2023-01-29T15:29:44.000Z,360
2023-01-29T15:31:01.000Z,443
2023-01-29T15:32:17.000Z,365
2023-01-29T15:33:33.000Z,347
2023-01-29T15:34:49.000Z,355
2023-01-29T15:36:06.000Z,348
2023-01-29T15:37:22.000Z,379
2023-01-29T15:38:38.000Z,298
2023-01-29T15:39:54.000Z,308
2023-01-29T15:41:11.000Z,256
2023-01-29T15:42:27.000Z,209
2023-01-29T15:43:42.000Z,430
2023-01-29T15:44:58.000Z,284
2023-01-29T15:46:15.000Z,265
2023-01-29T15:47:31.000Z,232
2023-01-29T15:48:47.000Z,241
2023-01-29T15:50:03.000Z,237
2023-01-29T15:51:19.000Z,244
2023-01-29T15:52:35.000Z,261
2023-01-29T15:53:50.000Z,231
2023-01-29T15:55:05.000Z,213
2023-01-29T15:56:20.000Z,230
2023-01-29T15:57:37.000Z,215
2023-01-29T15:58:53.000Z,191
2023-01-29T16:00:09.000Z,168
2023-01-29T16:01:25.000Z,152
2023-01-29T16:02:42.000Z,140
2023-01-29T16:03:58.000Z,137
2023-01-29T16:05:14.000Z,128
2023-01-29T16:06:30.000Z,114
2023-01-29T16:07:47.000Z,102
2023-01-29T16:09:03.000Z,95
2023-01-29T16:10:19.000Z,88
2023-01-29T16:11:35.000Z,79
2023-01-29T16:12:51.000Z,73
2023-01-29T16:14:07.000Z,68
2023-01-29T16:15:23.000Z,65
2023-01-29T16:16:39.000Z,62
2023-01-29T16:17:55.000Z,59
2023-01-29T16:19:12.000Z,54
2023-01-29T16:20:28.000Z,47
2023-01-29T16:21:44.000Z,53
2023-01-29T16:23:00.000Z,45
2023-01-29T16:24:17.000Z,31
2023-01-29T16:25:33.000Z,24
2023-01-29T16:26:49.000Z,223
2023-01-29T16:28:05.000Z,221
2023-01-29T16:29:21.000Z,215
2023-01-29T16:30:37.000Z,207
2023-01-29T16:31:53.000Z,203
2023-01-29T16:33:09.000Z,197
2023-01-29T16:34:26.000Z,193
2023-01-29T16:35:42.000Z,194
2023-01-29T16:36:58.000Z,191
2023-01-29T16:38:14.000Z,185
2023-01-29T16:39:30.000Z,185
2023-01-29T16:40:47.000Z,186
2023-01-29T16:42:03.000Z,186
2023-01-29T16:44:35.000Z,183
2023-01-29T16:47:07.000Z,186
2023-01-29T16:48:23.000Z,181
2023-01-29T16:49:39.000Z,185
2023-01-29T16:50:56.000Z,185
2023-01-29T16:52:12.000Z,185
2023-01-29T16:53:28.000Z,184
2023-01-29T16:54:44.000Z,180
2023-01-29T16:56:01.000Z,184
2023-01-29T16:57:17.000Z,181
2023-01-29T16:58:33.000Z,182
2023-01-29T16:59:49.000Z,179
2023-01-29T17:01:05.000Z,182
2023-01-29T17:02:21.000Z,187
2023-01-29T17:03:37.000Z,186
2023-01-29T17:04:53.000Z,185
2023-01-29T17:06:09.000Z,183
2023-01-29T17:07:26.000Z,185
2023-01-29T17:08:42.000Z,187
2023-01-29T17:09:58.000Z,184
2023-01-29T17:11:14.000Z,178
2023-01-29T17:12:31.000Z,181
2023-01-29T17:13:47.000Z,185
2023-01-29T17:15:03.000Z,182
2023-01-29T17:16:19.000Z,185
2023-01-29T17:17:35.000Z,183
2023-01-29T17:18:50.000Z,187
2023-01-29T17:20:05.000Z,183
2023-01-29T17:21:20.000Z,180
2023-01-29T17:22:37.000Z,182
2023-01-29T17:23:53.000Z,184
2023-01-29T17:25:09.000Z,180
2023-01-29T17:26:25.000Z,186
2023-01-29T17:27:42.000Z,183
2023-01-29T17:28:58.000Z,186
2023-01-29T17:30:14.000Z,179
2023-01-29T17:31:30.000Z,185
2023-01-29T17:32:46.000Z,182